Swan River, Canada
Current Conditions -  °F | °C
As of 1:00 PM on Friday 21 Nov 2014 (Local Time) from CYQV Reporting Station
Broken Clouds Broken Clouds  
Wind Chill: 30°   Ceiling: 9000
Heat Index: 37°   Visibility: 9mi
Dew Point: 28°   Wind: 12mph
Humidity: 70%   Direction: 250°WSW
Pressure: 29.4"   Gusts: NA
Location:  52.11°N, 101.25°W
Report Text: CYQV 211900Z AUTO 25010KT 9SM BKN090 BKN120 03/M02 A2940 RMK SLP982
Loading
Personal Weather Stations






























Interactive Weather Map New forecast layout! Learn more

10-Day Weather Forecast

Advertisements
Track Severe Weather on mobile